Flight Track Log - Related Links

Times and Time Zones

All times are in EDT time to prevent confusion due to time zone crossing. See the SKW4751 flight status page for this flight to view local times or setup timezone preferences in your user account.

Time Position Orientation Groundspeed Altitude Reporting Facility
EDT Latitude Longitude Course Direction KTS MPH feet Rate Location/Type
Sun 10:54:47 PM 44.8667 -93.1667 301° West 172 198 2,200  Level Minneapolis TRACON
Sun 10:55:35 PM 44.8608 -93.0972 97° East 218 251 3,800 2,477 Climbing Minneapolis Center
Sun 10:56:36 PM 44.8997 -93.0281 52° Northeast 263 303 6,700 3,197 Climbing Minneapolis Center
Sun 10:57:00 PM 45.1861 -93.4853 302° West  Level FlightAware Approximate
Sun 10:57:37 PM 44.9656 -93.0569 343° North 253 291 10,300  Level Minneapolis Center
Sun 10:58:00 PM 45.2302 -93.6070 295° West  Level FlightAware Approximate
Sun 10:58:38 PM 45.0081 -93.1472 304° West 281 323 12,600  Level Minneapolis Center
Sun 10:59:00 PM 45.2724 -93.7301 301° West  Level FlightAware Approximate
Sun 10:59:39 PM 45.0542 -93.2481 303° West 308 354 14,900  Level Minneapolis Center
Sun 11:00:40 PM 45.1017 -93.3544 302° West 321 369 17,300 2,311 Climbing Minneapolis Center
Sun 11:01:41 PM 45.1481 -93.4639 301° West 325 374 19,600 2,361 Climbing Minneapolis Center
Sun 11:02:42 PM 45.2092 -93.5983 303° West 337 388 22,100 1,967 Climbing Minneapolis Center
Sun 11:03:43 PM 45.2594 -93.7156 301° West 347 399 23,600 1,820 Climbing Minneapolis Center
Sun 11:04:44 PM 45.3114 -93.8344 302° West 356 410 25,800 1,672 Climbing Minneapolis Center
Sun 11:05:45 PM 45.3650 -93.9542 303° West 360 414 27,000 1,033 Climbing Minneapolis Center
Sun 11:06:46 PM 45.4183 -94.0819 301° West 374 430 27,900 492 Climbing Minneapolis Center
Sun 11:07:47 PM 45.4697 -94.2164 299° West 385 443 28,000 49 Climbing Minneapolis Center
Sun 11:08:48 PM 45.5222 -94.3517 299° West 390 449 28,000 -49 Level Minneapolis Center
Sun 11:09:49 PM 45.5731 -94.4844 299° West 385 443 27,900  Descending Minneapolis Center
Sun 11:10:50 PM 45.6333 -94.6103 304° West 386 444 28,000 49 Climbing Minneapolis Center
Sun 11:11:51 PM 45.6975 -94.7317 307° West 385 443 28,000  Level Minneapolis Center
Sun 11:12:52 PM 45.7606 -94.8575 306° West 389 448 28,000  Level Minneapolis Center
Sun 11:13:53 PM 45.8375 -95.0081 306° West 392 451 28,000  Level Minneapolis Center
Sun 11:14:54 PM 45.9022 -95.1386 305° West 394 453 28,000  Level Minneapolis Center
Sun 11:15:55 PM 45.9681 -95.2636 307° West 395 455 28,000  Level Minneapolis Center
Sun 11:16:56 PM 46.0325 -95.3914 306° West 395 455 28,000 -1,180 Level Minneapolis Center
Sun 11:17:57 PM 46.0936 -95.5156 305° West 385 443 25,600 -2,557 Descending Minneapolis Center
Sun 11:18:58 PM 46.1539 -95.6317 307° West 368 423 22,800 -2,876 Descending Minneapolis Center
Sun 11:19:58 PM 46.2117 -95.7456 306° West 356 410 19,800 -2,826 Descending Minneapolis Center
Sun 11:20:59 PM 46.2725 -95.8678 306° West 345 397 17,100 -2,410 Descending Minneapolis Center
Sun 11:22:00 PM 46.3261 -95.9744 306° West 339 390 14,900 -1,770 Descending Minneapolis Center
Sun 11:23:01 PM 46.3836 -96.0669 312° West 293 337 13,500 -1,770 Descending Minneapolis Center
Sun 11:24:02 PM 46.4464 -96.1367 323° Northwest 275 316 11,300 -2,016 Descending Minneapolis Center
Sun 11:25:03 PM 46.5044 -96.1950 325° Northwest 264 304 9,400 -1,672 Descending Minneapolis Center
Sun 11:26:04 PM 46.5631 -96.2606 322° Northwest 253 291 7,900 -1,328 Descending Minneapolis Center
Sun 11:27:05 PM 46.6183 -96.3253 321° Northwest 246 283 6,700 -1,140 Descending Minneapolis Center
Sun 11:28:05 PM 46.6672 -96.3872 319° Northwest 241 277 5,600 -1,140 Descending Minneapolis Center
Sun 11:29:06 PM 46.7197 -96.4581 317° Northwest 247 284 4,400 -934 Descending Minneapolis Center
Sun 11:30:07 PM 46.7622 -96.5144 318° Northwest 252 290 3,700 -639 Descending Minneapolis Center
Sun 11:31:08 PM 46.8269 -96.5908 321° Northwest 250 288 3,100 -347 Descending Minneapolis Center
Sun 11:32:08 PM 46.8775 -96.6539 320° Northwest 234 269 3,000 -50 Descending Minneapolis Center
Sun 11:33:09 PM 46.9283 -96.6981 329° Northwest 226 260 3,000  Level Minneapolis Center
Sun 11:34:10 PM 46.9928 -96.7003 359° North 224 258 3,000  Level Minneapolis Center

Login

Don't have an account? Register now (free) for customized features, flight alerts, and more!